Latest Weather Observations for Glen Innes Airport

IDN60801

Issued at 1:02 pm EDT Thursday 23 March 2017 (issued every 30 minutes, with the page automatically refreshed every 10 minutes)

About weather observations | Map of weather stations | Latest weather observations for NSW | Other Formats
Station Details ID: 056243 Name: GLEN INNES AIRPORT AWS Lat: -29.68 Lon: 151.69 Height: 1044.3 m
Data from the previous 72 hours. | See also: Recent months at Glen Innes Airport
Date/Time
EDT
Temp
°C
App
Temp
°C
Dew
Point
°C
Rel
Hum
%
Delta-T
°C
Wind Press
QNH
hPa
Press
MSL
hPa
Rain since
9am
mm
Dir  Spd
km/h
Gust
km/h
Spd
kts
Gust
kts
23/01:00pm 24.5 24.5 17.2 63 4.7 WNW 13 20 7 11 1020.8 1016.1 0.0
23/12:30pm 23.8 23.3 15.8 61 5.0 NW 13 19 7 10 1021.3 1016.6 0.0
23/12:00pm 23.1 22.8 15.4 62 4.8 NW 11 17 6 9 1021.4 1016.7 0.0
23/11:30am 22.4 22.7 16.0 67 4.0 WNW 9 13 5 7 1021.8 1017.1 0.0
23/11:00am 22.0 23.0 16.3 70 3.6 SSW 6 9 3 5 1021.9 1017.3 0.0
23/10:48am 21.8 22.8 16.3 71 3.5 NNE 6 11 3 6 1022.0 1017.4 0.0
23/10:30am 21.4 21.6 15.7 70 3.6 NE 9 11 5 6 1021.8 1017.1 0.0
23/10:00am 20.0 20.7 15.6 76 2.7 NW 6 7 3 4 1021.5 1016.8 0.0
23/09:50am 20.4 22.6 16.4 78 2.5 CALM 0 0 0 0 1021.5 1016.8 0.0
23/09:31am 19.7 20.8 16.7 83 1.9 N 6 7 3 4 1021.3 1016.6 0.0
23/09:30am 19.8 21.2 17.4 86 1.5 N 6 7 3 4 1021.3 1016.6 0.0
23/09:00am 18.2 20.5 16.7 91 0.9 CALM 0 0 0 0 1021.2 1016.5 0.0
23/08:30am 17.4 18.5 16.6 95 0.5 ENE 6 7 3 4 1020.9 1016.2 0.0
23/08:00am 16.1 17.5 15.3 95 0.5 SE 2 7 1 4 1020.6 1015.9 0.0
23/07:30am 15.2 15.3 14.4 95 0.5 SE 7 7 4 4 1020.4 1015.7 0.0
23/07:17am 14.6 15.7 13.6 94 0.6 CALM 0 0 0 0 1020.3 1015.6 0.0
23/07:00am 14.9 16.2 14.1 95 0.5 CALM 0 0 0 0 1020.2 1015.5 0.0
23/06:54am 15.0 16.3 14.2 95 0.5 CALM 0 0 0 0 1020.0 1015.3 0.0
23/06:30am 15.4 16.9 14.6 95 0.5 CALM 0 0 0 0 1019.9 1015.2 0.0
23/06:00am 14.9 16.2 14.1 95 0.5 CALM 0 0 0 0 1019.8 1015.1 0.0
23/05:37am 14.2 15.2 13.2 94 0.6 CALM 0 0 0 0 1019.5 1014.8 0.0
23/05:30am 14.0 14.2 13.1 94 0.5 S 4 7 2 4 1019.4 1014.7 0.0
23/05:06am 14.2 14.1 13.2 94 0.6 SE 6 7 3 4 1019.2 1014.4 0.0
23/05:00am 13.9 13.4 12.8 93 0.6 SE 7 9 4 5 1019.2 1014.4 0.0
23/04:30am 15.0 16.3 14.0 94 0.6 CALM 0 0 0 0 1019.3 1014.5 0.0
23/04:21am 14.9 16.1 13.8 93 0.6 CALM 0 0 0 0 1019.4 1014.7 0.0
23/04:00am 15.1 16.4 14.0 93 0.7 CALM 0 0 0 0 1019.3 1014.5 0.0
23/03:31am 15.7 17.1 14.4 92 0.8 CALM 0 0 0 0 1019.6 1014.9 0.0
23/03:30am 15.7 17.1 14.4 92 0.8 CALM 0 0 0 0 1019.7 1015.0 0.0
23/03:00am 16.5 17.9 15.4 93 0.7 SE 2 6 1 3 1019.9 1015.2 0.0
23/02:51am 16.5 17.1 15.2 92 0.8 SE 6 6 3 3 1020.0 1015.3 0.0
23/02:30am 16.8 18.7 15.7 93 0.7 CALM 0 0 0 0 1020.3 1015.6 0.0
23/02:00am 16.7 17.7 15.4 92 0.8 SSE 4 6 2 3 1020.5 1015.8 0.0
23/01:55am 16.6 17.2 15.3 92 0.8 SSE 6 7 3 4 1020.5 1015.8 0.0
23/01:30am 16.8 18.2 15.5 92 0.8 SSW 2 6 1 3 1020.5 1015.8 0.0
23/01:00am 17.0 17.7 15.7 92 0.8 SSW 6 7 3 4 1020.8 1016.1 0.0
23/12:30am 17.0 17.2 15.7 92 0.8 SSE 9 11 5 6 1020.7 1016.0 0.0
23/12:00am 17.0 17.2 15.7 92 0.8 ESE 9 11 5 6 1020.7 1016.0 0.0
 
Date/Time
EDT
Temp
°C
App
Temp
°C
Dew
Point
°C
Rel
Hum
%
Delta-T
°C
Wind Press
QNH
hPa
Press
MSL
hPa
Rain since
9am
mm
Dir  Spd
km/h
Gust
km/h
Spd
kts
Gust
kts
22/11:30pm 17.0 17.6 15.7 92 0.8 E 7 9 4 5 1020.7 1016.0 0.0
22/11:00pm 17.2 17.8 15.9 92 0.8 ENE 7 9 4 5 1020.9 1016.2 0.0
22/10:30pm 17.2 18.3 15.7 91 0.9 S 4 6 2 3 1020.9 1016.2 0.0
22/10:00pm 17.4 18.0 15.9 91 0.9 WSW 7 11 4 6 1020.9 1016.2 0.0
22/09:30pm 17.4 18.0 15.7 90 1.0 SSW 7 9 4 5 1020.7 1016.0 0.0
22/09:00pm 17.6 18.8 15.8 89 1.1 NNE 4 9 2 5 1020.3 1015.6 0.0
22/08:30pm 18.5 19.2 16.1 86 1.5 NNE 7 7 4 4 1020.3 1015.6 0.0
22/08:00pm 18.8 20.0 16.0 84 1.7 N 4 7 2 4 1019.8 1015.1 0.0
22/07:30pm 18.7 19.4 16.1 85 1.6 N 7 9 4 5 1019.4 1014.7 0.0
22/07:00pm 19.1 20.9 15.6 80 2.2 CALM 0 0 0 0 1019.1 1014.3 0.0
22/06:30pm 19.9 20.5 15.3 75 2.8 N 6 7 3 4 1018.8 1014.1 0.0
22/06:00pm 20.6 20.9 14.9 70 3.5 N 7 9 4 5 1018.4 1013.6 0.0
22/05:30pm 21.4 22.6 15.0 67 4.0 NNW 2 9 1 5 1018.5 1013.8 0.0
22/05:00pm 21.7 22.9 14.8 65 4.3 WNW 2 6 1 3 1018.6 1013.9 0.0
22/04:30pm 21.3 22.2 16.0 72 3.3 N 6 9 3 5 1018.8 1014.1 0.0
22/04:00pm 20.8 21.2 16.2 75 2.9 NNW 9 13 5 7 1019.1 1014.3 0.0
22/03:33pm 20.6 20.1 16.0 75 2.9 NNW 13 17 7 9 1019.2 1014.4 0.0
22/03:30pm 20.8 20.6 16.6 77 2.7 NNW 13 17 7 9 1019.3 1014.5 0.0
22/03:21pm 20.6 20.4 16.6 78 2.5 NNW 13 17 7 9 1019.3 1014.5 0.0
22/03:19pm 20.3 20.0 16.5 79 2.4 NNW 13 17 7 9 1019.3 1014.5 0.0
22/03:05pm 20.2 20.0 16.6 80 2.3 NNW 13 19 7 10 1019.4 1014.7 0.0
22/03:01pm 20.2 20.4 16.8 81 2.2 NNW 11 19 6 10 1019.5 1014.8 0.0
22/03:00pm 20.2 20.4 16.8 81 2.2 NNW 11 15 6 8 1019.5 1014.8 0.0
22/02:30pm 19.7 19.6 16.0 79 2.3 NW 11 17 6 9 1019.8 1015.1 0.0
22/02:29pm 19.7 19.7 16.3 81 2.1 WNW 11 17 6 9 1019.8 1015.1 0.0
22/02:00pm 19.6 18.5 16.4 82 2.0 WNW 17 20 9 11 1020.0 1015.3 0.0
22/01:30pm 19.6 19.3 16.4 82 2.0 WNW 13 17 7 9 1020.5 1015.8 0.0
22/01:00pm 19.8 19.7 17.0 84 1.8 WNW 13 19 7 10 1020.7 1016.0 0.0
22/12:58pm 19.6 18.9 16.3 81 2.1 WNW 15 19 8 10 1020.7 1016.0 0.0
22/12:30pm 19.5 19.2 16.5 83 1.9 WNW 13 17 7 9 1021.2 1016.5 0.0
22/12:29pm 19.6 19.4 16.6 83 1.9 WNW 13 17 7 9 1021.2 1016.5 0.0
22/12:00pm 19.2 18.7 16.8 86 1.5 WSW 15 17 8 9 1021.2 1016.5 0.0
22/11:30am 18.9 19.2 16.1 84 1.7 NW 9 13 5 7 1021.7 1017.0 0.0
22/11:05am 18.9 18.8 16.1 84 1.7 NW 11 17 6 9 1021.7 1017.0 0.0
22/11:00am 18.9 18.4 16.0 83 1.8 WNW 13 17 7 9 1021.7 1017.0 0.0
22/10:30am 19.4 19.7 17.0 86 1.5 WNW 11 15 6 8 1021.6 1016.9 0.0
22/10:00am 18.8 20.0 16.8 88 1.3 W 6 9 3 5 1021.5 1016.8 0.0
22/09:30am 17.6 19.7 16.3 92 0.8 CALM 0 0 0 0 1021.4 1016.7 0.0
22/09:00am 17.0 18.2 16.0 94 0.6 SSE 4 6 2 3 1021.2 1016.5 21.2
22/08:30am 16.5 17.6 15.7 95 0.5 SSE 4 6 2 3 1020.7 1016.0 21.2
22/08:00am 16.0 16.6 15.2 95 0.5 SSE 6 7 3 4 1020.3 1015.6 21.2
22/07:30am 15.6 17.1 14.6 94 0.6 CALM 0 0 0 0 1020.2 1015.5 21.2
22/07:00am 15.4 16.8 14.4 94 0.6 CALM 0 0 0 0 1019.8 1015.1 21.2
22/06:30am 15.6 15.9 14.6 94 0.6 SSE 6 7 3 4 1019.8 1015.1 21.2
22/06:00am 15.7 16.1 14.7 94 0.6 SSE 6 7 3 4 1019.6 1014.9 21.2
22/05:30am 15.8 16.0 14.8 94 0.6 SSE 7 9 4 5 1019.6 1014.9 21.2
22/05:00am 15.8 16.0 14.8 94 0.6 SE 7 7 4 4 1019.5 1014.8 21.2
22/04:30am 16.1 16.6 15.1 94 0.6 NE 6 6 3 3 1019.5 1014.8 21.2
22/04:00am 16.0 16.3 14.9 93 0.7 S 7 9 4 5 1019.6 1014.9 21.2
22/03:30am 16.2 16.8 15.2 94 0.6 SSE 6 7 3 4 1019.8 1015.1 21.2
22/03:00am 16.2 16.5 15.1 93 0.7 SSE 7 9 4 5 1020.0 1015.3 21.2
22/02:30am 16.3 16.8 15.0 92 0.8 ESE 6 7 3 4 1020.3 1015.6 21.2
22/02:00am 16.5 17.1 15.2 92 0.8 ESE 6 7 3 4 1020.5 1015.8 21.2
22/01:30am 16.5 17.0 15.0 91 0.9 ESE 6 7 3 4 1020.6 1015.9 21.2
22/01:00am 16.6 17.1 15.5 93 0.7 ESE 7 9 4 5 1020.7 1016.0 21.2
22/12:30am 16.8 17.5 15.7 93 0.7 SE 6 7 3 4 1020.9 1016.2 21.2
22/12:00am 16.9 17.4 15.6 92 0.8 SE 7 9 4 5 1021.3 1016.6 21.2
 
Date/Time
EDT
Temp
°C
App
Temp
°C
Dew
Point
°C
Rel
Hum
%
Delta-T
°C
Wind Press
QNH
hPa
Press
MSL
hPa
Rain since
9am
mm
Dir  Spd
km/h
Gust
km/h
Spd
kts
Gust
kts
21/11:30pm 17.0 17.7 15.7 92 0.8 SSE 6 7 3 4 1021.3 1016.6 21.2
21/11:00pm 17.2 17.8 15.9 92 0.8 SE 7 7 4 4 1021.2 1016.5 21.2
21/10:30pm 17.2 17.8 15.9 92 0.8 ESE 7 7 4 4 1021.2 1016.5 21.2
21/10:00pm 17.5 17.9 16.2 92 0.8 E 9 9 5 5 1021.2 1016.5 21.2
21/09:30pm 17.5 17.9 16.4 93 0.7 E 9 11 5 6 1021.2 1016.5 21.2
21/09:00pm 17.6 18.1 16.5 93 0.7 ENE 9 9 5 5 1021.2 1016.5 21.2
21/08:30pm 17.8 18.7 16.5 92 0.8 ENE 7 7 4 4 1020.8 1016.1 21.2
21/08:00pm 18.1 19.4 17.0 93 0.7 E 6 7 3 4 1020.5 1015.8 21.2
21/07:30pm 18.3 20.3 17.0 92 0.8 N 2 6 1 3 1020.3 1015.6 21.2
21/07:00pm 18.5 19.8 17.2 92 0.8 N 6 9 3 5 1020.2 1015.5 21.2
21/06:30pm 18.6 19.8 17.3 92 0.8 NNE 7 9 4 5 1020.2 1015.5 21.0
21/06:00pm 19.0 20.4 17.7 92 0.8 NE 7 9 4 5 1019.9 1015.2 19.6
21/05:42pm 18.9 19.4 17.4 91 1.0 NNE 11 17 6 9 1020.0 1015.3 19.4
21/05:30pm 19.1 20.5 17.8 92 0.8 NNE 7 11 4 6 1019.9 1015.2 19.2
21/05:29pm 19.1 20.5 17.8 92 0.8 NNE 7 11 4 6 1019.9 1015.2 19.2
21/05:00pm 19.0 19.6 17.7 92 0.8 NE 11 17 6 9 1019.8 1015.1 18.0
21/04:57pm 19.0 19.6 17.7 92 0.8 NE 11 15 6 8 1019.8 1015.1 17.8
21/04:44pm 18.9 20.2 17.6 92 0.8 NNE 7 11 4 6 1019.9 1015.2 17.4
21/04:30pm 19.0 19.0 17.3 90 1.1 NNE 13 20 7 11 1020.0 1015.3 16.0
21/04:11pm 19.2 19.9 17.9 92 0.8 N 11 17 6 9 1019.9 1015.2 15.2
21/04:00pm 19.1 19.7 17.8 92 0.8 N 11 20 6 11 1020.0 1015.3 14.8
21/03:30pm 19.0 20.0 17.8 93 0.8 NE 9 13 5 7 1019.9 1015.2 13.0
21/03:28pm 19.0 19.6 17.8 93 0.8 NE 11 13 6 7 1019.9 1015.2 13.0
21/03:00pm 19.0 20.4 17.7 92 0.8 NE 7 11 4 6 1019.9 1015.2 10.4
21/02:55pm 19.0 20.0 17.7 92 0.8 NNE 9 13 5 7 1019.9 1015.2 10.2
21/02:46pm 18.9 19.5 17.6 92 0.8 NNE 11 15 6 8 1020.0 1015.3 10.0
21/02:30pm 19.1 20.0 17.6 91 1.0 NNE 9 17 5 9 1020.2 1015.5 9.2
21/02:15pm 19.5 20.6 18.0 91 1.0 N 9 15 5 8 1020.2 1015.5 7.8
21/02:00pm 19.6 20.2 17.7 89 1.2 NNE 11 17 6 9 1020.4 1015.7 7.6
21/01:34pm 19.8 20.7 18.3 91 1.0 N 11 19 6 10 1020.5 1015.8 7.6
21/01:30pm 19.8 21.0 18.3 91 1.0 N 9 17 5 9 1020.5 1015.8 7.6
21/01:15pm 19.2 19.8 17.7 91 1.0 N 11 19 6 10 1020.7 1016.0 7.4
21/01:03pm 19.2 18.7 16.8 86 1.5 NNE 15 30 8 16 1020.8 1016.1 2.8
21/01:00pm 20.1 20.6 17.5 85 1.7 NNE 11 30 6 16 1020.8 1016.1 1.0
21/12:59pm 20.7 21.8 17.9 84 1.8 NNE 9 28 5 15 1020.8 1016.1 0.8
21/12:37pm 20.9 22.1 18.3 85 1.7 NNE 9 13 5 7 1021.0 1016.4 0.6
21/12:30pm 20.7 21.9 18.3 86 1.6 NE 9 13 5 7 1021.0 1016.4 0.6
21/12:20pm 20.5 21.6 18.8 90 1.1 NE 11 15 6 8 1021.2 1016.5 0.6
21/12:19pm 20.3 21.1 18.2 88 1.4 NE 11 15 6 8 1021.3 1016.6 0.6
21/12:04pm 20.2 20.3 18.3 89 1.2 NE 15 26 8 14 1021.4 1016.7 0.4
21/12:02pm 19.9 19.7 17.5 86 1.5 NE 15 26 8 14 1021.4 1016.7 0.4
21/12:00pm 19.9 19.9 17.3 85 1.7 NE 13 26 7 14 1021.4 1016.7 0.2
21/11:44am 21.2 21.8 17.8 81 2.2 NE 11 15 6 8 1021.5 1016.8 0.0
21/11:30am 20.5 20.8 17.9 85 1.7 NE 13 19 7 10 1021.6 1016.9 0.0
21/11:27am 20.8 20.8 18.0 84 1.8 ENE 15 20 8 11 1021.7 1017.0 0.0
21/11:21am 21.0 20.7 17.4 80 2.3 ENE 15 20 8 11 1021.7 1017.0 0.0
21/11:00am 21.3 21.4 17.5 79 2.4 NE 13 19 7 10 1021.8 1017.1 0.0
21/10:30am 20.5 20.4 16.9 80 2.3 NE 13 19 7 10 1022.0 1017.4 0.0
21/10:00am 20.6 19.8 17.0 80 2.3 E 17 22 9 12 1021.9 1017.3 0.0
21/09:30am 20.1 19.7 17.1 83 1.9 E 15 20 8 11 1021.7 1017.0 0.0
21/09:12am 19.5 18.6 16.9 85 1.6 E 17 22 9 12 1021.6 1016.9 0.0
21/09:00am 19.8 19.1 17.4 86 1.5 E 17 22 9 12 1021.4 1016.7 2.0
21/08:30am 19.2 18.5 17.3 89 1.2 ESE 17 20 9 11 1021.3 1016.6 2.0
21/08:00am 18.1 19.2 17.0 93 0.7 E 7 13 4 7 1021.0 1016.4 2.0
21/07:30am 17.4 17.5 16.4 94 0.6 ESE 11 13 6 7 1020.6 1015.9 2.0
21/07:21am 17.2 17.5 16.1 93 0.7 ESE 9 11 5 6 1020.5 1015.8 2.0
21/07:00am 17.6 16.6 16.5 93 0.7 E 17 20 9 11 1020.4 1015.7 2.0
21/06:30am 16.8 17.0 15.7 93 0.7 ESE 9 11 5 6 1020.3 1015.6 2.0
21/06:21am 16.7 16.8 15.4 92 0.8 ESE 9 9 5 5 1020.2 1015.5 2.0
21/06:00am 17.4 17.8 16.3 93 0.7 ESE 9 11 5 6 1020.3 1015.6 2.0
21/05:30am 17.4 18.2 16.4 94 0.6 E 7 9 4 5 1019.9 1015.2 2.0
21/05:19am 17.5 18.0 16.5 94 0.6 E 9 11 5 6 1019.8 1015.1 2.0
21/05:00am 17.4 17.5 16.4 94 0.6 E 11 13 6 7 1019.7 1015.0 2.0
21/04:57am 17.4 17.8 16.4 94 0.6 E 9 13 5 7 1019.7 1015.0 2.0
21/04:30am 16.8 16.6 15.8 94 0.6 E 11 15 6 8 1019.7 1015.0 2.0
21/04:00am 17.0 17.1 15.5 91 0.9 E 9 15 5 8 1019.8 1015.1 2.0
21/03:30am 17.9 16.9 16.6 92 0.8 E 17 22 9 12 1019.9 1015.2 2.0
21/03:00am 17.8 18.3 16.5 92 0.8 E 9 13 5 7 1020.5 1015.8 1.8
21/02:30am 17.6 17.7 16.5 93 0.7 E 11 15 6 8 1020.5 1015.8 1.8
21/02:25am 17.6 17.3 16.5 93 0.7 E 13 17 7 9 1020.6 1015.9 1.8
21/02:00am 17.7 17.4 16.4 92 0.8 ESE 13 17 7 9 1020.5 1015.8 1.8
21/01:39am 17.6 17.2 16.3 92 0.8 E 13 17 7 9 1020.6 1015.9 1.8
21/01:30am 17.6 16.9 16.3 92 0.8 E 15 20 8 11 1020.7 1016.0 1.8
21/01:07am 17.7 16.6 16.4 92 0.8 E 17 20 9 11 1020.6 1015.9 1.8
21/01:00am 17.7 16.2 16.4 92 0.8 E 19 22 10 12 1020.6 1015.9 1.8
21/12:30am 17.6 17.9 16.1 91 0.9 ESE 9 17 5 9 1021.2 1016.5 1.8
21/12:03am 17.8 16.7 16.3 91 0.9 E 17 24 9 13 1021.3 1016.6 1.8
21/12:00am 17.7 16.9 16.2 91 0.9 E 15 20 8 11 1021.4 1016.7 1.8
 
Date/Time
EDT
Temp
°C
App
Temp
°C
Dew
Point
°C
Rel
Hum
%
Delta-T
°C
Wind Press
QNH
hPa
Press
MSL
hPa
Rain since
9am
mm
Dir  Spd
km/h
Gust
km/h
Spd
kts
Gust
kts
20/11:30pm 17.6 16.9 16.3 92 0.8 E 15 17 8 9 1021.5 1016.8 1.8
20/11:00pm 17.6 17.6 16.3 92 0.8 E 11 13 6 7 1021.8 1017.1 1.8
20/10:30pm 17.9 17.2 16.4 91 0.9 ENE 15 19 8 10 1021.8 1017.1 1.8
20/10:00pm 18.0 16.9 16.3 90 1.1 ENE 17 20 9 11 1022.0 1017.4 1.6
20/09:30pm 17.7 17.0 16.4 92 0.8 E 15 19 8 10 1021.9 1017.3 1.6
20/09:00pm 17.9 15.8 16.2 90 1.1 E 22 28 12 15 1021.6 1016.9 1.6
20/08:30pm 17.9 16.0 16.8 93 0.7 E 22 30 12 16 1021.4 1016.7 1.6
20/08:00pm 17.9 16.4 16.8 93 0.7 E 20 26 11 14 1021.3 1016.6 1.6
20/07:52pm 17.9 16.0 16.8 93 0.7 E 22 28 12 15 1021.2 1016.5 1.6
20/07:42pm 17.8 16.5 16.7 93 0.7 ESE 19 24 10 13 1021.2 1016.5 1.4
20/07:30pm 17.7 16.7 16.6 93 0.7 ESE 17 22 9 12 1021.2 1016.5 1.4
20/07:16pm 17.8 16.8 16.5 92 0.8 ESE 17 24 9 13 1021.0 1016.4 0.8
20/07:00pm 17.9 16.3 16.6 92 0.8 ESE 20 28 11 15 1020.8 1016.1 0.8
20/06:48pm 18.0 15.9 16.3 90 1.1 ESE 22 28 12 15 1020.6 1015.9 0.8
20/06:41pm 18.0 16.4 16.5 91 0.9 ESE 20 28 11 15 1020.5 1015.8 0.8
20/06:30pm 18.1 17.1 16.6 91 0.9 ESE 17 26 9 14 1020.6 1015.9 0.8
20/06:00pm 18.3 17.0 16.8 91 0.9 ESE 19 24 10 13 1020.4 1015.7 0.8
20/05:30pm 18.6 16.0 16.8 89 1.1 E 26 35 14 19 1020.2 1015.5 0.8
20/05:17pm 19.3 17.4 16.7 85 1.6 E 22 32 12 17 1020.2 1015.5 0.2
20/05:00pm 19.7 17.0 16.7 83 1.9 ESE 26 33 14 18 1019.9 1015.2 0.2
20/04:30pm 19.8 17.8 17.4 86 1.5 E 24 33 13 18 1020.3 1015.6 0.0
20/04:00pm 21.0 17.7 17.0 78 2.5 ESE 30 37 16 20 1019.9 1015.2 0.0
20/03:30pm 20.2 17.0 17.2 83 1.9 ESE 30 35 16 19 1020.0 1015.3 0.0
20/03:16pm 20.5 18.4 18.1 86 1.6 ESE 26 35 14 19 1020.2 1015.5 0.0
20/03:00pm 19.5 17.2 17.5 88 1.3 ESE 26 33 14 18 1020.5 1015.8 0.0
20/02:40pm 22.3 22.8 18.3 78 2.6 SE 13 19 7 10 1020.6 1015.9 0.0
20/02:30pm 22.2 23.2 18.6 80 2.4 ESE 11 15 6 8 1020.6 1015.9 0.0
20/02:00pm 21.9 22.7 17.3 75 3.0 NE 9 13 5 7 1020.9 1016.2 0.0
20/01:30pm 22.4 21.6 17.1 72 3.4 ENE 17 20 9 11 1021.3 1016.6 0.0

Other Formats:

Comma delimited format used in spreadsheet applications
http://www.bom.gov.au/fwo/IDN60801/IDN60801.94588.axf

JavaScript Object Notation format (JSON) in row-major order
http://www.bom.gov.au/fwo/IDN60801/IDN60801.94588.json